createdAt,value
2023-02-15T00:00:41.301Z,101816.53
2023-02-15T00:05:42.873Z,101816.06
2023-02-15T00:10:44.402Z,101813.09
2023-02-15T00:15:45.902Z,101809.66
2023-02-15T00:20:47.437Z,101807.19
2023-02-15T00:25:48.985Z,101810.09
2023-02-15T00:30:50.541Z,101808.97
2023-02-15T00:35:57.917Z,101813.50
2023-02-15T00:41:01.577Z,101811.81
2023-02-15T00:46:04.653Z,101810.81
2023-02-15T00:51:06.352Z,101806.25
2023-02-15T00:56:07.929Z,101798.34
2023-02-15T01:01:12.590Z,101808.47
2023-02-15T01:06:16.272Z,101810.94
2023-02-15T01:11:23.108Z,101804.19
2023-02-15T01:16:28.094Z,101800.53
2023-02-15T01:21:30.225Z,101800.06
2023-02-15T01:26:31.779Z,101794.84
2023-02-15T01:31:33.965Z,101791.66
2023-02-15T01:36:36.233Z,101793.41
2023-02-15T01:41:37.843Z,101789.75
2023-02-15T01:46:45.739Z,101787.56
2023-02-15T01:51:49.909Z,101777.00
2023-02-15T01:56:51.737Z,101771.38
2023-02-15T02:01:58.282Z,101770.16
2023-02-15T02:07:01.088Z,101765.72
2023-02-15T02:12:03.054Z,101778.41
2023-02-15T02:17:29.195Z,101767.38
2023-02-15T02:22:47.445Z,101760.78
2023-02-15T02:27:57.415Z,101753.25
2023-02-15T02:33:44.033Z,101744.91
2023-02-15T02:38:59.623Z,101749.47
2023-02-15T02:44:13.163Z,101741.50
2023-02-15T02:49:14.712Z,101744.81
2023-02-15T02:54:16.403Z,101744.69
2023-02-15T02:59:25.803Z,101739.47
2023-02-15T03:04:37.496Z,101738.22
2023-02-15T03:09:45.334Z,101729.69
2023-02-15T03:14:53.590Z,101719.47
2023-02-15T03:20:01.482Z,101711.66
2023-02-15T03:25:37.640Z,101725.53
2023-02-15T03:30:43.833Z,101727.41
2023-02-15T03:36:01.371Z,101729.13
2023-02-15T03:41:11.984Z,101727.75
2023-02-15T03:46:24.228Z,101726.50
2023-02-15T03:51:39.943Z,101729.06
2023-02-15T03:57:03.195Z,101723.69
2023-02-15T04:02:29.079Z,101730.03
2023-02-15T04:07:30.591Z,101730.25
2023-02-15T04:12:32.195Z,101729.75
2023-02-15T04:17:36.427Z,101723.13
2023-02-15T04:22:56.574Z,101721.84
2023-02-15T04:27:58.084Z,101717.91
2023-02-15T04:32:59.605Z,101707.19
2023-02-15T04:38:01.169Z,101714.16
2023-02-15T04:43:02.764Z,101710.16
2023-02-15T04:48:04.333Z,101714.19
2023-02-15T04:53:05.845Z,101717.22
2023-02-15T04:58:07.364Z,101713.16
2023-02-15T05:03:08.921Z,101712.06
2023-02-15T05:08:10.481Z,101711.78
2023-02-15T05:13:12.027Z,101702.00
2023-02-15T05:18:13.550Z,101701.03
2023-02-15T05:23:15.213Z,101703.94
2023-02-15T05:28:22.663Z,101703.59
2023-02-15T05:33:24.166Z,101703.00
2023-02-15T05:38:26.002Z,101699.50
2023-02-15T05:43:27.542Z,101704.00
2023-02-15T05:48:29.796Z,101713.88
2023-02-15T05:53:33.583Z,101718.75
2023-02-15T05:58:40.445Z,101719.81
2023-02-15T06:03:42.231Z,101715.78
2023-02-15T06:08:43.852Z,101719.13
2023-02-15T06:13:45.404Z,101715.44
2023-02-15T06:18:46.952Z,101729.41
2023-02-15T06:23:48.520Z,101734.47
2023-02-15T06:28:50.253Z,101733.53
2023-02-15T06:33:51.842Z,101734.75
2023-02-15T06:38:53.414Z,101740.06
2023-02-15T06:43:55.001Z,101737.94
2023-02-15T06:48:56.562Z,101754.00
2023-02-15T06:53:58.121Z,101755.53
2023-02-15T06:58:59.796Z,101752.78
2023-02-15T07:04:01.358Z,101756.31
2023-02-15T07:09:03.132Z,101750.84
2023-02-15T07:14:04.655Z,101760.16
2023-02-15T07:19:06.255Z,101755.91
2023-02-15T07:24:08.214Z,101762.56
2023-02-15T07:29:09.998Z,101761.84
2023-02-15T07:34:12.280Z,101762.69
2023-02-15T07:39:14.027Z,101764.38
2023-02-15T07:44:16.095Z,101763.50
2023-02-15T07:49:17.603Z,101748.91
2023-02-15T07:54:19.194Z,101752.44
2023-02-15T07:59:20.696Z,101749.22
2023-02-15T08:04:22.203Z,101745.34
2023-02-15T08:09:24.883Z,101742.75
2023-02-15T08:14:28.376Z,101739.97
2023-02-15T08:19:32.756Z,101742.22
2023-02-15T08:24:40.296Z,101733.31
2023-02-15T08:29:43.163Z,101736.06
2023-02-15T08:34:47.279Z,101726.69
2023-02-15T08:39:48.796Z,101725.09
2023-02-15T08:44:51.885Z,101720.41
2023-02-15T08:49:53.564Z,101716.22
2023-02-15T08:54:57.542Z,101715.75
2023-02-15T08:59:59.082Z,101709.88
2023-02-15T09:05:00.619Z,101710.59
2023-02-15T09:10:02.130Z,101703.94
2023-02-15T09:15:03.892Z,101694.25
2023-02-15T09:20:06.289Z,101698.13
2023-02-15T09:25:08.066Z,101694.38
2023-02-15T09:30:10.052Z,101689.38
2023-02-15T09:35:11.588Z,101680.47
2023-02-15T09:40:18.003Z,101685.69
2023-02-15T09:45:38.652Z,101685.13
2023-02-15T09:50:54.776Z,101681.88
2023-02-15T09:56:11.099Z,101679.31
2023-02-15T10:01:35.909Z,101693.53
2023-02-15T10:06:57.776Z,101700.97
2023-02-15T10:12:24.862Z,101705.91
2023-02-15T10:18:00.653Z,101691.63
2023-02-15T10:23:24.288Z,101692.72
2023-02-15T10:28:44.338Z,101672.88
2023-02-15T10:33:46.742Z,101675.75
2023-02-15T10:39:11.500Z,101668.94
2023-02-15T10:44:28.819Z,101669.88
2023-02-15T10:49:48.994Z,101661.56
2023-02-15T10:54:58.533Z,101659.94
2023-02-15T11:00:17.876Z,101663.75
2023-02-15T11:05:55.867Z,101661.47
2023-02-15T11:11:08.931Z,101648.09
2023-02-15T11:16:29.099Z,101640.25
2023-02-15T11:21:43.911Z,101634.97
2023-02-15T11:27:04.147Z,101634.88
2023-02-15T11:32:42.936Z,101617.00
2023-02-15T11:37:52.369Z,101588.16
2023-02-15T11:43:02.501Z,101582.16
2023-02-15T11:48:11.592Z,101566.06
2023-02-15T11:53:20.127Z,101533.22
2023-02-15T11:59:18.880Z,101536.22
2023-02-15T12:04:45.252Z,101530.56
2023-02-15T12:09:52.939Z,101531.66
2023-02-15T12:15:03.566Z,101543.84
2023-02-15T12:20:21.873Z,101548.31
2023-02-15T12:25:30.259Z,101548.66
2023-02-15T12:30:36.560Z,101527.72
2023-02-15T12:35:38.871Z,101518.41
2023-02-15T12:40:41.113Z,101516.56
2023-02-15T12:45:42.657Z,101489.94
2023-02-15T12:50:46.498Z,101470.13
2023-02-15T12:56:02.712Z,101484.00
2023-02-15T13:01:15.282Z,101505.97
2023-02-15T13:06:18.816Z,101495.38
2023-02-15T13:11:29.721Z,101466.22
2023-02-15T13:16:39.552Z,101477.97
2023-02-15T13:21:45.097Z,101456.81
2023-02-15T13:26:51.405Z,101455.78
2023-02-15T13:31:54.708Z,101441.47
2023-02-15T13:37:09.464Z,101442.03
2023-02-15T13:42:22.209Z,101445.28
2023-02-15T13:47:46.412Z,101450.28
2023-02-15T13:52:56.838Z,101435.28
2023-02-15T13:58:23.577Z,101439.66
2023-02-15T14:04:19.755Z,101443.78
2023-02-15T14:09:49.182Z,101448.34
2023-02-15T14:15:19.537Z,101446.78
2023-02-15T14:20:42.715Z,101439.09
2023-02-15T14:25:52.564Z,101444.56
2023-02-15T14:30:55.537Z,101443.19
2023-02-15T14:35:58.206Z,101441.19
2023-02-15T14:41:13.470Z,101437.81
2023-02-15T14:46:31.399Z,101444.81
2023-02-15T14:51:46.492Z,101447.28
2023-02-15T14:57:08.029Z,101448.56
2023-02-15T15:02:09.668Z,101454.06
2023-02-15T15:07:24.024Z,101450.31
2023-02-15T15:12:29.527Z,101439.03
2023-02-15T15:17:33.883Z,101440.28
2023-02-15T15:22:37.335Z,101434.25
2023-02-15T15:27:42.779Z,101441.13
2023-02-15T15:32:59.472Z,101436.00
2023-02-15T15:38:31.701Z,101441.03
2023-02-15T15:44:07.027Z,101430.66
2023-02-15T15:49:16.913Z,101421.34
2023-02-15T15:54:21.019Z,101429.06
2023-02-15T15:59:29.112Z,101432.25
2023-02-15T16:04:33.284Z,101437.44
2023-02-15T16:09:34.873Z,101449.03
2023-02-15T16:14:39.237Z,101446.81
2023-02-15T16:19:43.151Z,101456.25
2023-02-15T16:25:03.457Z,101448.59
2023-02-15T16:30:23.381Z,101444.50
2023-02-15T16:35:24.930Z,101432.44
2023-02-15T16:40:34.974Z,101431.88
2023-02-15T16:45:39.194Z,101439.72
2023-02-15T16:50:49.641Z,101450.63
2023-02-15T16:55:57.943Z,101458.28
2023-02-15T17:01:02.270Z,101463.81
2023-02-15T17:06:04.985Z,101466.94
2023-02-15T17:11:14.148Z,101455.00
2023-02-15T17:16:29.284Z,101452.97
2023-02-15T17:21:40.775Z,101441.44
2023-02-15T17:26:42.427Z,101453.34
2023-02-15T17:31:49.996Z,101459.09
2023-02-15T17:37:00.229Z,101459.06
2023-02-15T17:42:01.842Z,101462.59
2023-02-15T17:47:04.528Z,101461.28
2023-02-15T17:52:06.091Z,101462.91
2023-02-15T17:57:13.778Z,101454.78
2023-02-15T18:02:34.056Z,101458.97
2023-02-15T18:07:54.045Z,101459.69
2023-02-15T18:12:55.569Z,101463.06
2023-02-15T18:17:57.290Z,101462.91
2023-02-15T18:22:58.827Z,101461.31
2023-02-15T18:28:00.350Z,101461.13
2023-02-15T18:33:02.477Z,101451.78
2023-02-15T18:38:04.048Z,101454.53
2023-02-15T18:43:05.546Z,101455.03
2023-02-15T18:48:10.617Z,101449.91
2023-02-15T18:53:18.667Z,101451.03
2023-02-15T18:58:22.644Z,101451.91
2023-02-15T19:03:24.208Z,101453.53
2023-02-15T19:08:25.832Z,101452.94
2023-02-15T19:13:27.342Z,101463.34
2023-02-15T19:18:28.838Z,101468.31
2023-02-15T19:23:31.409Z,101465.25
2023-02-15T19:28:34.597Z,101466.97
2023-02-15T19:33:36.188Z,101460.59
2023-02-15T19:38:37.891Z,101453.41
2023-02-15T19:43:39.449Z,101453.03
2023-02-15T19:48:40.991Z,101454.22
2023-02-15T19:53:42.840Z,101449.06
2023-02-15T19:58:44.468Z,101446.75
2023-02-15T20:03:46.055Z,101437.69
2023-02-15T20:08:47.617Z,101442.03
2023-02-15T20:13:49.159Z,101459.75
2023-02-15T20:18:50.687Z,101469.63
2023-02-15T20:23:52.315Z,101461.47
2023-02-15T20:28:53.932Z,101470.13
2023-02-15T20:33:55.534Z,101472.16
2023-02-15T20:39:00.920Z,101488.25
2023-02-15T20:44:21.198Z,101498.06
2023-02-15T20:49:24.793Z,101511.41
2023-02-15T20:54:31.087Z,101509.03
2023-02-15T20:59:34.927Z,101507.59
2023-02-15T21:04:36.538Z,101494.88
2023-02-15T21:09:38.040Z,101491.16
2023-02-15T21:14:39.735Z,101499.31
2023-02-15T21:19:42.206Z,101501.19
2023-02-15T21:24:52.119Z,101503.63
2023-02-15T21:29:53.653Z,101503.16
2023-02-15T21:34:55.187Z,101504.16
2023-02-15T21:39:56.876Z,101506.44
2023-02-15T21:45:16.942Z,101517.69
2023-02-15T21:50:42.242Z,101512.03
2023-02-15T21:55:43.837Z,101496.88
2023-02-15T22:00:45.411Z,101486.50
2023-02-15T22:05:46.986Z,101480.63
2023-02-15T22:10:48.640Z,101492.78
2023-02-15T22:15:50.249Z,101494.56
2023-02-15T22:20:53.300Z,101486.94
2023-02-15T22:25:57.436Z,101493.16
2023-02-15T22:30:59.804Z,101506.13
2023-02-15T22:36:01.639Z,101509.69
2023-02-15T22:41:04.651Z,101502.84
2023-02-15T22:46:13.641Z,101512.91
2023-02-15T22:51:17.789Z,101501.13
2023-02-15T22:56:23.447Z,101503.88
2023-02-15T23:01:32.891Z,101506.91
2023-02-15T23:06:34.608Z,101511.53
2023-02-15T23:11:36.441Z,101505.50
2023-02-15T23:16:38.008Z,101491.59
2023-02-15T23:21:39.586Z,101490.09
2023-02-15T23:26:41.232Z,101488.91
2023-02-15T23:31:46.406Z,101501.34
2023-02-15T23:36:48.084Z,101518.81
2023-02-15T23:41:49.726Z,101505.84
2023-02-15T23:46:51.511Z,101505.13
2023-02-15T23:51:55.077Z,101492.19
2023-02-15T23:57:00.823Z,101486.22
